首页
METAR-TAF:

METAR-TAF

机场 :

夏洛特道格拉斯國際機場

夏洛特, 北卡罗来纳州, 美国

纬度: 35-12-48N, 经度: 080-56-55W, 海拔: 228米

当前天气观测

该预报发布于21分钟前的03:52 UTC
风速3节,风向
温度 22°C
湿度 88%
气压 1020 hPa
能見度: 16.1公里
少量云层高于11000英尺
多云层高于15000英尺

METAR: KCLT 170352Z 35003KT 10SM FEW110 BKN150 22/20 A3013 RMK AO2 SLP194 T02220200

时间: 00:13 (04:13 UTC)

预报

该预报发布于4小时和34分钟前的23:39 UTC
预报有效从17日的 00点(UTC)到 18日的 06点(UTC)
风速4节,风向
能見度: 10公里
多云层高于9000英尺
从 17日的 0800点(UTC)
风速5节,风向北转东北
能見度: 8.0公里
少量云层高于800英尺
散云层高于2500英尺
轻雾
从 17日的 1400点(UTC)
风速5节,风向北转东北
能見度: 10公里
散云层高于4000英尺
几率 30%
从 17日的 17点(UTC)到 17日的 21点(UTC)
能見度: 6.4公里
多云层高于4000英尺
小阵雨, 轻雾
从 18日的 0400点(UTC)
风速3节,风向
能見度: 9.7公里
散云层高于8000英尺
轻雾

TAF: KCLT 162339Z 1700/1806 01004KT P6SM BKN090 FM170800 03005KT 5SM BR FEW008 SCT025 FM171400 02005KT P6SM SCT040 PROB30 1717/1721 4SM -SHRA BR BKN040 FM180400 35003KT 6SM BR SCT080

超过4000个机场的气象观测和天气预报(METAR&TAF报告)。

可查询的气象台以黄色和红色小点在地图上表示。

将鼠标移到小点上方,可查看气象台名称。

然后点击查看天气观测和预报。

如需切换地图:点击带黑十字的绿色按钮放大地图;点击带横线的绿色按钮缩小地图;或者点击绿色箭头查看邻近地区的地图。


METAR-TAF: